• Join FlightAware (Why Join?)
  • Login
  • US Flag 
11:41AM EST


 

Airport Tracker/Info


-or-


 

Live Flight TrackerFlight Track Log ✈ ASQ6115 ✈ 08-Jun-2013 ✈ KIAH - KMFE

Flight Track Log - Related Links

Times and Time Zones

All times are in EDT time to prevent confusion due to time zone crossing. See the ASQ6115 flight status page for this flight to view local times or setup timezone preferences in your user account.

Time Position Orientation Groundspeed Altitude Reporting Facility
EDT Latitude Longitude Course Direction KTS MPH feet Rate Location/Type
10:22PM 29.9639 -95.3433 128° Southeast 151 174 700  Level Houston Center
10:23PM 29.9306 -95.2947 128° Southeast 192 221 2,900 1,920 Climbing Houston Center
10:24PM 29.8786 -95.2492 143° Southeast 259 298 5,000 2,160 Climbing Houston Center
10:25PM 29.8072 -95.2597 187° South 260 299 7,400 2,340 Climbing Houston Center
10:26PM 29.7339 -95.2831 195° South 273 314 9,800 1,680 Climbing Houston Center
10:27PM 29.6542 -95.3078 195° South 301 346 10,800 1,140 Climbing Houston Center
10:28PM 29.5444 -95.3422 195° South 348 400 12,100 1,320 Climbing Houston Center
10:29PM 29.4481 -95.3717 195° South 359 413 13,500 1,320 Climbing Houston Center
10:30PM 29.3533 -95.4150 202° Southwest 373 429 14,900 1,380 Climbing Houston Center
10:31PM 29.2722 -95.4853 217° Southwest 369 425 16,400 1,380 Climbing Houston Center
10:32PM 29.1931 -95.5578 219° Southwest 366 421 17,800 1,320 Climbing Houston Center
10:33PM 29.1136 -95.6306 219° Southwest 365 420 19,100 1,260 Climbing Houston Center
10:34PM 29.0325 -95.7058 219° Southwest 374 430 20,400 1,140 Climbing Houston Center
10:35PM 28.9503 -95.7817 219° Southwest 380 437 21,500 780 Climbing Houston Center
10:37PM 28.8653 -95.8586 218° Southwest 389 448 22,000 240 Climbing Houston Center
10:38PM 28.7753 -95.9408 219° Southwest 411 473 22,000 -60 Level Houston Center
10:39PM 28.6797 -96.0272 218° Southwest 425 489 21,900  Descending Houston Center
10:40PM 28.5878 -96.1117 219° Southwest 425 489 22,000  Climbing Houston Center
10:41PM 28.4947 -96.1961 219° Southwest 425 489 22,000  Level Houston Center
10:42PM 28.4056 -96.2775 219° Southwest 412 474 22,000  Level Houston Center
10:43PM 28.3142 -96.3606 219° Southwest 416 479 22,000  Level Houston Center
10:44PM 28.2203 -96.4439 218° Southwest 426 490 22,000  Level Houston Center
10:45PM 28.1267 -96.5269 218° Southwest 426 490 22,000  Level Houston Center
10:46PM 28.0342 -96.6089 218° Southwest 423 487 22,000  Level Houston Center
10:47PM 27.9422 -96.6917 219° Southwest 423 487 22,000  Level Houston Center
10:48PM 27.8331 -96.7900 219° Southwest 418 481 22,000  Level Houston Center
10:49PM 27.7425 -96.8697 218° Southwest 415 478 22,000  Level Houston Center
10:50PM 27.6508 -96.9511 218° Southwest 417 480 22,000  Level Houston Center
10:51PM 27.5603 -97.0328 219° Southwest 417 480 22,000  Level Houston Center
10:52PM 27.4722 -97.1097 218° Southwest 406 467 22,000 -60 Level Houston Center
10:53PM 27.3878 -97.1844 218° Southwest 407 468 21,900  Descending Houston Center
10:54PM 27.2975 -97.2631 218° Southwest 409 471 22,000  Climbing Houston Center
10:54PM 27.2203 -97.3308 218° Southwest 410 472 22,000 -360 Level Houston Center
10:56PM 27.1206 -97.4197 218° Southwest 403 464 21,400 -780 Descending Houston Center
10:57PM 27.0336 -97.5092 223° Southwest 399 459 20,400 -1,140 Descending Houston Center
10:58PM 26.9544 -97.5928 223° Southwest 391 450 19,200 -1,620 Descending Houston Center
10:59PM 26.8708 -97.6769 222° Southwest 394 453 17,200 -1,860 Descending Houston Center
11:00PM 26.7953 -97.7572 223° Southwest 385 443 15,500 -1,860 Descending Houston Center
11:01PM 26.7178 -97.8381 223° Southwest 382 440 13,500 -1,920 Descending Houston Center
11:02PM 26.6397 -97.9161 222° Southwest 380 437 11,700 -1,620 Descending Houston Center
11:03PM 26.5678 -97.9892 222° Southwest 314 361 10,100 -1,680 Descending Houston Center
11:04PM 26.5147 -98.0450 223° Southwest 281 323 8,400 -1,860 Descending Houston Center
11:05PM 26.4575 -98.1017 222° Southwest 276 318 6,600 -1,800 Descending Houston Center
11:06PM 26.4044 -98.1575 223° Southwest 265 305 4,800 -1,800 Descending Houston Center
11:07PM 26.3533 -98.2108 223° Southwest 255 293 3,000 -1,440 Descending Houston Center
11:08PM 26.3111 -98.2700 231° Southwest 247 284 2,000 -1,020 Descending Houston Center